WAGO2: Chouteau Lock And Dam (L&D 17)

Data processed at Sat Mar 10 2018 22:34


All information presented herein is the property of the government of the United States of America and may be revised or deleted at any time without prior notice.
Dissemination of this information without the expressed written consent of the Public Affairs Office, Tulsa District U.S. Army Corps of Engineers is strictly prohibited.
These data are gathered electronically and, as presented, have not undergone any form of quality control. These data are not guaranteed to be valid or correct.
Go to home page.
Go to station list.

Upstream stations:

Downstream station:
Previous Day
Next Day
Current Day
    
SHEF ID:       WAGO2     Chouteau Lock And Dam (L&D 17)
STATION TYPE:  NAVIGATION LOCK
Normal Pool:  Bottom =   511.50, Top =   511.50

               PRECIP ELEVATION   STORAGE   TW-ELEV    INFLOW   RELEASE  AIR-TEMP  WIND-DIRWIND-SPEED REL-HUMID SOLAR-RAD   VOLTAGE  BAT-LOAD
                   in        ft     ac-ft        ft       cfs       cfs         F       deg       mph         %      W/m2      volt      volt
              Ccp-Rev   Ccp-Rev   Ccp-Rev   Ccp-Rev  Regi-Rev  Regi-Rev   Ccp-Rev   Ccp-Rev   Ccp-Rev   Ccp-Rev   Ccp-Rev   Ccp-Rev   Ccp-Rev
(US/Central)
03/08 00:00      0.00    511.39     23455    491.67      5700      5675     31.41    103.30      0.70     93.56      0.00     13.56     13.08
03/08 01:00      0.00    511.40     23478    491.70      5950      5675     30.20     36.40      0.40     98.46      0.00     13.59     13.05
03/08 02:00      0.00    511.41     23501    491.71      5840      5675     28.87    337.80      0.20     98.54      0.00     13.57     13.07
03/08 03:00      0.00    511.42     23523    491.72      5895      5675     28.00    290.10      0.20     98.67      0.00     13.57     13.05
03/08 04:00      0.00    511.42     23523    491.73      5895      5675     28.11    301.30      0.50     99.11      0.00     13.55     13.06
03/08 05:00      0.00    511.43     23546    491.74      5400      5675     27.55    344.80      0.10     99.26      0.00     13.58     13.08
03/08 06:00      0.00    511.44     23569    491.76      5460      5675     27.10    356.00      0.00     99.53      0.00     13.58     13.06
03/08 07:00      0.00    511.36     23387    491.84      5576      5675     26.42    273.60      0.70     99.56      0.00     13.59     13.06
03/08 08:00      0.00    511.35     23364    491.81      5526      6525     28.90    347.50      1.90     95.05     94.20     13.56     13.09
03/08 09:00      0.00    511.34     23342    491.62      4872      6525     34.39    357.20      1.80     71.10    298.90     13.56     13.06
03/08 10:00      0.00    511.31     23274    491.50      5756      6525     39.99     79.10      2.40     50.17    504.50     13.56     13.08
03/08 11:00      0.00    511.17     22956    491.54      5646      6525     43.21     13.50      3.40     38.63    664.00     13.55     13.27
03/08 12:00      0.00    511.22     23069    491.45      5756      6525     46.02    316.50      3.40     34.13    729.30     13.54     13.09
03/08 13:00      0.00    511.19     23001    491.42      5811      6525     49.50    230.50      3.40     29.82    807.40     13.59     13.07
03/08 14:00      0.00    511.20     23024    491.42      6745      6525     52.00    205.40      2.70     28.72    711.70     13.48     13.11
03/08 15:00      0.00    511.18     22979    491.36      7808      6525     54.28    151.40      3.50     27.45    738.70     13.55     13.06
03/08 16:00      0.00    511.21     23047    491.27      6784      6525     56.23    150.40      4.10     26.92    591.40     13.49     13.10
03/08 17:00      0.00    511.50     23705    491.18      6639      5250     57.36    140.80      5.10     26.43    396.70     13.56     13.06
03/08 18:00      0.00    511.33     23319    491.07      6109      5250     57.13    136.90      5.80     28.38    161.50     13.56     13.07
03/08 19:00      0.00    511.33     23319    491.08      5799      5250     53.87    128.40      2.70     35.04      2.20     13.59     13.05
03/08 20:00      0.00    511.29     23228    491.05      4371      5250     50.16    128.80      3.10     42.91      0.00     13.55     13.06
03/08 21:00      0.00    511.31     23274    491.05      5470      5250     49.46    141.50      4.50     40.28      0.00     13.55     13.07
03/08 22:00      0.00    511.34     23342    491.05      5470      5250     49.66    147.10      7.50     35.94      0.00     13.58     13.09
03/08 23:00      0.00    511.37     23410    491.05      5909      5250     49.05    146.20      7.60     37.78      0.00     13.57     13.07